Time;durP1;ratioP1;P1;durP2;ratioP2;P2;SDS_P1;SDS_P2;PMS_P1;PMS_P2;Temp;Humidity;BMP_temperature;BMP_pressure;BME280_temperature;BME280_humidity;BME280_pressure;Samples;Min_cycle;Max_cycle;Signal;HPM_P1;HPM_P2
2022/08/02 14:12:50;;;;;;;;;;;;;;;;;;;;;
2022/08/02 14:17:36;;;;;;;4.70;2.83;;;;;;;28.06;41.91;100620.63;3416517;81;21508;-71
2022/08/02 14:22:29;;;;;;;3.00;2.65;;;;;;;28.28;42.65;100612.70;3413786;81;20990;-71
2022/08/02 14:32:50;;;;;;;4.05;2.55;;;;;;;29.08;41.30;100613.22;3470527;80;21022;-71
2022/08/02 14:37:43;;;;;;;2.22;2.10;;;;;;;29.82;41.18;100615.30;3416438;79;21537;-71
2022/08/02 14:42:39;;;;;;;2.98;2.70;;;;;;;30.00;40.04;100611.40;3469884;79;20978;-70
2022/08/02 14:47:32;;;;;;;4.35;2.62;;;;;;;29.33;40.59;100605.88;3426358;81;21420;-71
2022/08/02 14:52:25;;;;;;;4.12;3.00;;;;;;;28.79;40.97;100607.86;3401006;78;20986;-71
2022/08/02 15:03:33;;;;;;;2.55;2.33;;;;;;;27.92;42.19;100610.73;3555200;77;20993;-71
2022/08/02 15:08:27;;;;;;;6.67;3.60;;;;;;;27.52;42.64;100618.75;3497456;78;21132;-72
2022/08/02 15:19:20;;;;;;;3.42;3.00;;;;;;;27.25;43.77;100611.28;3560035;77;21020;-72
2022/08/02 15:24:12;;;;;;;3.70;2.60;;;;;;;27.20;44.77;100611.55;3565710;77;20959;-72
2022/08/02 15:29:06;;;;;;;2.90;2.60;;;;;;;27.12;44.95;100614.24;3503115;78;21009;-72
2022/08/02 15:33:58;;;;;;;3.90;2.75;;;;;;;27.06;44.99;100617.22;3521102;78;20974;-71
2022/08/02 15:38:51;;;;;;;3.80;2.60;;;;;;;27.33;45.56;100613.11;3540929;78;20983;-72
2022/08/02 15:43:43;;;;;;;2.67;2.47;;;;;;;28.10;45.03;100622.17;3521647;78;20994;-71
2022/08/02 15:48:40;;;;;;;4.53;2.72;;;;;;;28.49;44.22;100620.78;3532161;79;21495;-73
2022/08/02 15:53:41;;;;;;;2.40;2.27;;;;;;;28.50;43.52;100619.81;3540831;78;20991;-74
2022/08/02 15:58:35;;;;;;;5.33;3.02;;;;;;;28.45;42.92;100612.53;3548987;78;20958;-73
2022/08/02 16:03:32;;;;;;;2.87;2.67;;;;;;;28.33;43.13;100619.94;3459228;80;20938;-72
2022/08/02 16:08:25;;;;;;;2.90;2.55;;;;;;;27.95;42.77;100615.91;3412609;80;21087;-72
2022/08/02 16:18:28;;;;;;;3.05;2.52;;;;;;;27.48;44.65;100626.07;3487823;80;20955;-72
2022/08/02 16:23:20;;;;;;;3.33;2.80;;;;;;;27.58;45.01;100623.29;3456502;80;21005;-72
2022/08/02 16:28:12;;;;;;;5.35;2.83;;;;;;;27.65;45.77;100629.61;3439134;80;20982;-71
2022/08/02 16:33:04;;;;;;;2.47;2.27;;;;;;;27.72;45.61;100630.53;3526689;77;21488;-72
2022/08/02 16:37:56;;;;;;;4.08;3.12;;;;;;;28.02;44.45;100629.75;3532273;78;20934;-72
2022/08/02 16:42:49;;;;;;;2.52;2.33;;;;;;;28.24;44.05;100631.17;3566987;78;21081;-72
2022/08/02 16:47:41;;;;;;;2.95;2.50;;;;;;;28.30;43.45;100632.17;3479540;78;20955;-71
2022/08/02 16:52:33;;;;;;;3.87;2.50;;;;;;;28.03;43.48;100639.51;3510263;77;21574;-72
2022/08/02 16:57:26;;;;;;;3.08;2.33;;;;;;;27.79;44.06;100634.18;3544498;78;21846;-72
2022/08/02 17:02:18;;;;;;;5.87;2.60;;;;;;;27.81;43.56;100634.95;3514960;79;21010;-73
2022/08/02 17:07:11;;;;;;;2.40;2.20;;;;;;;27.62;44.18;100636.00;3553183;79;20888;-72
2022/08/02 17:12:04;;;;;;;4.30;2.47;;;;;;;27.54;43.84;100638.22;3499304;78;21045;-71
2022/08/02 17:16:56;;;;;;;4.45;2.70;;;;;;;27.56;43.81;100641.66;3504398;77;21510;-72
2022/08/02 17:21:48;;;;;;;2.62;2.42;;;;;;;27.57;43.78;100641.58;3560141;79;21891;-72
2022/08/02 17:26:40;;;;;;;4.90;2.67;;;;;;;27.54;43.94;100640.89;3515909;78;20975;-72
2022/08/02 17:31:33;;;;;;;18.25;16.40;;;;;;;27.45;44.97;100648.08;3491018;78;21580;-72
2022/08/02 17:36:25;;;;;;;4.53;4.12;;;;;;;27.28;45.73;100646.34;3515754;79;20932;-72
2022/08/02 17:41:17;;;;;;;6.22;3.10;;;;;;;27.01;46.55;100649.02;3537351;78;21695;-72
2022/08/02 17:46:10;;;;;;;2.55;2.40;;;;;;;26.68;47.00;100654.30;3531685;78;22604;-72
2022/08/02 17:51:02;;;;;;;2.58;2.37;;;;;;;26.33;47.92;100661.41;3538822;78;21307;-72
2022/08/02 17:55:55;;;;;;;5.67;2.70;;;;;;;25.99;48.56;100655.06;3518916;78;21073;-72
2022/08/02 18:00:47;;;;;;;6.33;3.40;;;;;;;25.60;48.56;100658.64;3541912;78;20976;-72
2022/08/02 18:05:39;;;;;;;4.90;4.50;;;;;;;25.25;48.66;100662.44;3545709;77;20978;-72
2022/08/02 18:10:31;;;;;;;4.67;4.20;;;;;;;24.92;49.49;100669.16;3587985;78;21072;-72
2022/08/02 18:15:24;;;;;;;6.62;4.03;;;;;;;24.64;50.13;100670.80;3497811;78;21038;-72
2022/08/02 18:20:17;;;;;;;5.62;3.72;;;;;;;24.43;51.32;100675.66;3512700;77;20990;-72
2022/08/02 18:25:09;;;;;;;4.67;3.85;;;;;;;24.22;51.32;100682.27;3560985;79;21563;-72
2022/08/02 18:30:02;;;;;;;4.62;4.22;;;;;;;24.02;51.81;100686.17;3524698;77;20926;-72
2022/08/02 18:34:59;;;;;;;3.72;3.42;;;;;;;23.83;52.46;100694.86;3503494;78;21606;-72
2022/08/02 18:39:49;;;;;;;3.98;3.60;;;;;;;23.68;52.93;100688.77;3537044;77;21456;-72
2022/08/02 18:44:43;;;;;;;8.40;4.97;;;;;;;23.53;53.57;100692.41;3531254;78;20967;-72
2022/08/02 18:49:35;;;;;;;10.00;4.78;;;;;;;23.39;54.06;100701.34;3546139;78;21514;-73
2022/08/02 18:54:29;;;;;;;14.53;5.62;;;;;;;23.27;54.69;100704.43;3524976;77;21910;-72
2022/08/02 18:59:21;;;;;;;10.18;4.60;;;;;;;23.15;55.32;100711.06;3476569;78;21026;-72
2022/08/02 19:04:14;;;;;;;11.55;5.62;;;;;;;22.99;56.07;100714.20;3511847;78;20919;-72
2022/08/02 19:09:06;;;;;;;9.60;4.75;;;;;;;22.85;56.53;100721.30;3483423;78;21484;-71
2022/08/02 19:13:58;;;;;;;10.13;5.15;;;;;;;22.75;57.09;100723.88;3572989;77;20953;-72
2022/08/02 19:18:54;;;;;;;12.00;5.62;;;;;;;22.64;57.42;100731.30;3564946;77;20975;-72
2022/08/02 19:24:02;;;;;;;9.30;5.00;;;;;;;22.56;58.01;100733.34;3495823;77;21249;-72
2022/08/02 19:29:18;;;;;;;6.92;4.97;;;;;;;22.52;58.46;100731.69;3500430;78;21207;-72
2022/08/02 19:34:11;;;;;;;7.53;5.10;;;;;;;22.43;58.61;100731.09;3473873;77;20969;-71
2022/08/02 19:39:03;;;;;;;8.58;6.35;;;;;;;22.35;59.08;100727.80;3492730;78;20995;-72
2022/08/02 19:43:56;;;;;;;12.07;8.83;;;;;;;22.27;59.42;100720.58;3527362;79;20984;-72
2022/08/02 19:54:25;;;;;;;13.75;9.30;;;;;;;22.01;59.94;100719.55;3587081;78;21587;-72
2022/08/02 20:00:17;;;;;;;12.05;9.43;;;;;;;21.89;60.33;100718.59;3482662;78;21463;-72
2022/08/02 20:05:09;;;;;;;11.53;9.10;;;;;;;21.78;60.73;100715.41;3518003;79;21428;-72
2022/08/02 20:10:03;;;;;;;18.80;12.55;;;;;;;21.62;61.13;100719.84;3500478;78;20896;-73
2022/08/02 20:14:55;;;;;;;11.70;10.50;;;;;;;21.50;61.31;100718.87;3460218;78;22602;-72
2022/08/02 20:30:45;;;;;;;14.35;10.50;;;;;;;21.03;62.12;100724.52;3597716;78;21401;-72
2022/08/02 20:46:31;;;;;;;15.75;12.65;;;;;;;20.65;63.18;100730.77;3558145;78;20142;-72
2022/08/02 20:51:24;;;;;;;14.28;12.30;;;;;;;20.47;63.29;100729.41;3514913;78;20976;-73
2022/08/02 20:56:16;;;;;;;13.80;12.45;;;;;;;20.39;63.57;100724.31;3528059;77;20986;-71
2022/08/02 21:01:32;;;;;;;13.93;12.58;;;;;;;20.29;63.83;100730.70;3523819;77;20951;-71
2022/08/02 21:06:36;;;;;;;15.25;11.97;;;;;;;20.18;64.13;100733.13;3497413;78;22816;-72
2022/08/02 21:11:31;;;;;;;13.30;11.03;;;;;;;20.08;64.47;100723.67;3515362;78;21140;-71
2022/08/02 21:22:02;;;;;;;12.33;11.12;;;;;;;19.89;64.91;100731.56;3566645;78;21005;-72
2022/08/02 21:26:55;;;;;;;13.90;12.50;;;;;;;19.76;65.13;100734.49;3462105;79;21045;-72
2022/08/02 21:37:28;;;;;;;15.48;13.03;;;;;;;19.54;65.74;100735.78;3584221;78;21003;-72
2022/08/02 21:42:20;;;;;;;15.45;12.93;;;;;;;19.52;66.00;100741.55;3505926;78;20967;-72
2022/08/02 21:47:18;;;;;;;12.85;11.60;;;;;;;19.46;66.16;100742.97;3520733;78;21033;-71
2022/08/02 21:52:07;;;;;;;13.45;12.13;;;;;;;19.39;66.45;100737.83;3518473;78;21481;-71
2022/08/02 21:57:00;;;;;;;12.98;11.45;;;;;;;19.32;66.70;100749.38;3514514;78;22404;-71
2022/08/02 22:01:54;;;;;;;16.62;12.63;;;;;;;19.31;66.93;100749.41;3501643;78;21066;-71
2022/08/02 22:06:46;;;;;;;12.15;11.05;;;;;;;19.28;66.78;100752.98;3449929;78;20987;-71
2022/08/02 22:11:38;;;;;;;12.23;10.95;;;;;;;19.29;67.31;100747.25;3561943;78;21630;-72
2022/08/02 22:16:32;;;;;;;14.73;12.13;;;;;;;19.26;67.39;100744.20;3479223;78;20977;-71
2022/08/02 22:21:24;;;;;;;11.40;10.38;;;;;;;19.24;67.53;100748.64;3540547;77;20958;-71
2022/08/02 22:26:16;;;;;;;12.20;10.93;;;;;;;19.14;67.64;100741.37;3483603;78;21038;-71
2022/08/02 22:31:09;;;;;;;11.25;10.25;;;;;;;19.08;67.67;100739.28;3531047;77;21403;-71
2022/08/02 22:36:01;;;;;;;10.28;9.30;;;;;;;18.96;67.81;100743.02;3498045;78;20964;-71
2022/08/02 22:40:55;;;;;;;11.40;9.30;;;;;;;18.85;67.97;100745.80;3526850;78;20981;-71
2022/08/02 22:45:48;;;;;;;8.58;7.85;;;;;;;18.77;68.01;100751.63;3543591;78;21531;-71
2022/08/02 22:50:40;;;;;;;9.75;8.83;;;;;;;18.71;68.25;100762.25;3502750;78;20963;-71
2022/08/02 22:55:32;;;;;;;10.20;8.40;;;;;;;18.62;68.27;100762.84;3497091;78;20994;-71
2022/08/02 23:00:25;;;;;;;9.38;8.35;;;;;;;18.55;68.48;100771.72;3507149;78;21116;-72
2022/08/02 23:05:17;;;;;;;9.10;8.25;;;;;;;18.49;68.50;100774.43;3501341;78;21006;-71
2022/08/02 23:10:13;;;;;;;9.83;8.73;;;;;;;18.42;68.58;100771.46;3522101;77;20989;-71
2022/08/02 23:15:07;;;;;;;10.15;8.03;;;;;;;18.38;68.88;100777.67;3500209;78;21494;-71
2022/08/02 23:20:00;;;;;;;12.25;8.78;;;;;;;18.32;69.14;100777.78;3495857;76;22367;-71
2022/08/02 23:24:52;;;;;;;8.63;7.92;;;;;;;18.27;69.14;100784.41;3497494;78;21003;-71
2022/08/02 23:29:46;;;;;;;9.60;8.50;;;;;;;18.19;69.38;100775.73;3493040;79;21007;-71
2022/08/02 23:34:38;;;;;;;11.03;8.40;;;;;;;18.15;69.57;100770.95;3475025;79;21713;-71
2022/08/02 23:39:32;;;;;;;9.10;8.20;;;;;;;18.04;69.46;100769.78;3469462;78;20963;-71
2022/08/02 23:44:46;;;;;;;8.30;7.50;;;;;;;17.97;69.69;100768.58;3453995;79;21006;-71
2022/08/02 23:49:38;;;;;;;9.15;7.95;;;;;;;17.93;69.76;100760.31;3473943;78;21070;-70
2022/08/02 23:54:30;;;;;;;8.83;8.03;;;;;;;17.88;69.96;100769.14;3501323;79;21546;-71
2022/08/02 23:59:22;;;;;;;8.78;7.70;;;;;;;17.87;70.21;100762.58;3367772;81;21012;-71
